createdAt,value
2019-04-11T02:51:03.531Z,56.40
2019-04-11T02:53:34.728Z,54.10
2019-04-11T02:56:06.281Z,51.90
2019-04-11T02:58:36.920Z,50.30
2019-04-11T03:01:09.584Z,47.80
2019-04-11T03:03:41.629Z,47.50
2019-04-11T03:06:11.146Z,46.10
2019-04-11T03:08:43.059Z,43.00
2019-04-11T03:11:14.208Z,44.70
2019-04-11T03:13:46.326Z,42.90
2019-04-11T03:16:30.017Z,42.90
2019-04-11T03:19:05.982Z,44.20
2019-04-11T03:21:21.908Z,41.80
2019-04-11T03:23:51.382Z,41.20
2019-04-11T03:26:21.829Z,40.90
2019-04-11T03:32:05.738Z,43.00
2019-04-11T04:17:49.718Z,45.00
2019-04-11T04:20:21.439Z,45.40
2019-04-11T04:22:54.385Z,45.20
2019-04-11T04:25:24.368Z,45.20
2019-04-11T04:27:56.670Z,45.50
2019-04-11T04:30:27.734Z,45.40
2019-04-11T04:32:58.200Z,46.30
2019-04-11T04:35:28.593Z,46.90
2019-04-11T07:59:33.762Z,37.80
2019-04-11T08:02:27.201Z,38.70
2019-04-11T08:16:59.529Z,37.30
2019-04-11T08:29:30.852Z,37.90
2019-04-11T08:32:04.570Z,38.50
2019-04-11T08:34:39.579Z,37.80
2019-04-11T08:37:12.243Z,38.00
2019-04-11T08:39:44.927Z,38.50
2019-04-11T08:42:17.985Z,38.70
2019-04-11T08:44:50.132Z,38.40
2019-04-11T08:47:22.532Z,39.30
2019-04-11T08:49:54.325Z,39.40
2019-04-11T08:52:27.912Z,39.60
2019-04-11T08:55:00.493Z,39.40
2019-04-11T08:57:32.539Z,39.70
2019-04-11T09:00:06.058Z,39.50
2019-04-11T09:02:38.752Z,39.30
2019-04-11T09:05:15.145Z,39.50
2019-04-11T09:07:45.721Z,39.60
2019-04-11T09:10:18.472Z,39.50
2019-04-11T09:12:50.961Z,39.50
2019-04-11T09:15:24.466Z,39.40
2019-04-11T09:18:04.199Z,39.50
2019-04-11T09:20:31.783Z,39.30
2019-04-11T09:23:03.769Z,39.20
2019-04-11T09:25:36.950Z,39.70
2019-04-11T09:28:09.381Z,38.80
2019-04-11T09:30:43.134Z,38.80
2019-04-11T09:33:17.106Z,36.30
2019-04-11T09:35:49.572Z,35.50
2019-04-11T09:38:22.166Z,37.00
2019-04-11T09:40:57.012Z,34.70
2019-04-11T09:43:29.411Z,35.40
2019-04-11T09:46:02.307Z,35.30
2019-04-11T09:48:35.225Z,35.20
2019-04-11T09:51:09.303Z,35.30
2019-04-11T09:53:42.943Z,35.10
2019-04-11T09:56:15.493Z,35.30
2019-04-11T09:58:48.332Z,35.50
2019-04-11T10:01:21.170Z,35.40
2019-04-11T10:03:52.969Z,35.70
2019-04-11T10:06:25.843Z,36.10
2019-04-11T10:08:59.628Z,36.10
2019-04-11T10:11:32.666Z,36.00
2019-04-11T10:14:05.245Z,36.30
2019-04-11T10:16:38.050Z,37.10
2019-04-11T10:19:11.698Z,38.00
2019-04-11T10:21:45.671Z,38.50
2019-04-11T10:24:20.599Z,38.70
2019-04-11T10:26:53.062Z,38.90
2019-04-11T10:29:27.484Z,39.00
2019-04-11T10:31:59.613Z,39.40
2019-04-11T10:34:33.478Z,40.10
2019-04-11T10:37:05.336Z,39.70
2019-04-11T10:39:38.007Z,40.00
2019-04-11T10:42:10.911Z,40.20
2019-04-11T10:44:43.993Z,40.20
2019-04-11T10:47:16.938Z,40.60
2019-04-11T10:49:50.470Z,40.80
2019-04-11T10:52:24.524Z,41.20
2019-04-11T10:54:57.498Z,41.40
2019-04-11T10:57:30.263Z,41.60
2019-04-11T11:00:03.121Z,41.40
2019-04-11T11:02:35.714Z,41.70
2019-04-11T11:05:07.729Z,41.70
2019-04-11T11:07:38.543Z,42.10
2019-04-11T11:52:59.495Z,45.10
2019-04-11T11:55:31.948Z,45.20
2019-04-11T11:58:04.558Z,45.10
2019-04-11T12:00:36.700Z,45.30
2019-04-11T12:03:10.556Z,45.40
2019-04-11T12:05:48.125Z,45.60
2019-04-11T12:08:18.185Z,46.00
2019-04-11T12:18:29.619Z,46.70
2019-04-11T12:25:02.867Z,47.20
2019-04-11T12:27:37.027Z,47.10
2019-04-11T12:33:47.828Z,47.60
2019-04-11T12:36:21.029Z,48.30
2019-04-11T12:38:54.848Z,48.60
2019-04-11T12:41:27.385Z,48.60
2019-04-11T12:44:00.111Z,48.50
2019-04-11T12:46:32.835Z,48.60
2019-04-11T12:49:05.431Z,48.50
2019-04-11T12:51:38.154Z,48.90
2019-04-11T12:54:10.074Z,49.20
2019-04-11T12:56:41.636Z,49.40
2019-04-11T12:59:12.685Z,50.50
2019-04-11T13:01:45.579Z,49.90
2019-04-11T13:04:18.191Z,50.00
2019-04-11T13:06:50.816Z,49.70
2019-04-11T13:09:23.594Z,49.80
2019-04-11T13:11:56.182Z,49.80
2019-04-11T13:14:28.519Z,50.00
2019-04-11T13:17:01.226Z,50.50
2019-04-11T13:19:34.281Z,50.70
2019-04-11T13:22:06.711Z,50.50
2019-04-11T13:24:39.328Z,50.30
2019-04-11T13:27:11.959Z,50.90
2019-04-11T13:29:44.386Z,50.70
2019-04-11T13:32:17.061Z,50.80
2019-04-11T13:34:49.407Z,50.70
2019-04-11T13:37:21.754Z,50.50
2019-04-11T13:39:54.033Z,50.50
2019-04-11T13:42:26.291Z,51.00
2019-04-11T13:44:57.865Z,51.60
2019-04-11T13:47:31.739Z,52.10
2019-04-11T13:50:04.179Z,51.50
2019-04-11T13:52:38.398Z,51.40
2019-04-11T13:55:11.149Z,51.90
2019-04-11T13:57:43.823Z,52.40
2019-04-11T14:00:16.597Z,52.80
2019-04-11T14:02:51.302Z,53.20
2019-04-11T14:05:23.504Z,52.80
2019-04-11T14:07:55.776Z,52.90
2019-04-11T14:10:26.961Z,52.40
2019-04-11T14:13:00.979Z,52.10
2019-04-11T14:15:31.873Z,52.40
2019-04-11T14:18:05.116Z,52.30
2019-04-11T14:20:41.677Z,52.90
2019-04-11T14:23:13.654Z,53.00
2019-04-11T14:25:45.454Z,53.10
2019-04-11T14:28:18.096Z,53.80
2019-04-11T14:30:52.458Z,53.40
2019-04-11T14:33:25.663Z,53.10
2019-04-11T14:35:57.793Z,53.20
2019-04-11T14:38:32.062Z,53.20
2019-04-11T14:41:03.795Z,53.60
2019-04-11T14:43:36.469Z,54.10
2019-04-11T14:46:09.147Z,54.10
2019-04-11T14:58:57.751Z,53.80
2019-04-11T15:04:59.967Z,54.50
2019-04-11T15:07:32.635Z,56.00
2019-04-11T15:10:04.953Z,56.00
2019-04-11T15:12:37.462Z,55.00
2019-04-11T15:15:10.289Z,54.80
2019-04-11T15:57:23.912Z,56.00
2019-04-11T16:06:12.919Z,56.10
2019-04-11T16:08:43.722Z,56.40
2019-04-11T16:11:15.945Z,57.10
2019-04-11T16:13:47.905Z,56.40
2019-04-11T16:19:48.616Z,56.30
2019-04-11T16:22:24.661Z,56.40
2019-04-11T17:22:24.080Z,59.00
2019-04-11T17:28:23.743Z,58.90
2019-04-11T17:30:55.774Z,59.00
2019-04-11T17:33:28.669Z,59.20
2019-04-11T17:36:02.027Z,59.20
2019-04-11T17:38:31.170Z,59.60
2019-04-11T17:41:02.491Z,59.50
2019-04-11T17:43:33.945Z,59.80
2019-04-11T17:46:05.457Z,59.80
2019-04-11T17:48:36.636Z,59.60
2019-04-11T17:51:09.518Z,60.00
2019-04-11T17:53:38.397Z,59.70
2019-04-11T17:56:09.195Z,61.00
2019-04-11T17:58:40.080Z,60.10
2019-04-11T18:01:11.664Z,60.10
2019-04-11T18:03:42.703Z,60.50
2019-04-11T18:06:16.930Z,61.20
2019-04-11T18:08:46.726Z,60.70
2019-04-11T18:11:16.614Z,60.50
2019-04-11T18:13:47.334Z,61.60
2019-04-11T18:16:18.010Z,60.40
2019-04-11T18:18:48.705Z,60.30
2019-04-11T18:21:19.855Z,60.30
2019-04-11T18:23:50.662Z,58.70
2019-04-11T18:26:21.999Z,60.50
2019-04-11T18:28:52.782Z,59.90
2019-04-11T18:31:24.962Z,61.80
2019-04-11T18:33:54.585Z,60.70
2019-04-11T18:36:25.854Z,62.00
2019-04-11T18:38:56.590Z,61.40
2019-04-11T18:41:27.935Z,60.80
2019-04-11T18:43:58.816Z,61.10
2019-04-11T18:46:29.578Z,60.90
2019-04-11T18:49:01.280Z,62.00
2019-04-11T18:51:32.561Z,61.10
2019-04-11T18:54:03.725Z,61.10
2019-04-11T18:56:37.838Z,61.00
2019-04-11T18:59:08.085Z,61.10
2019-04-11T19:01:40.110Z,61.10
2019-04-11T19:04:12.027Z,61.50
2019-04-11T19:06:43.056Z,62.30
2019-04-11T19:09:15.046Z,61.70
2019-04-11T19:11:46.393Z,62.70
2019-04-11T19:14:18.011Z,61.90
2019-04-11T19:16:48.763Z,62.00
2019-04-11T19:19:19.608Z,62.20
2019-04-11T19:21:51.644Z,62.20
2019-04-11T19:24:21.952Z,62.50
2019-04-11T19:26:53.460Z,63.50
2019-04-11T19:29:25.030Z,62.60
2019-04-11T19:31:56.609Z,64.00
2019-04-11T19:34:28.002Z,64.50
2019-04-11T19:36:59.566Z,63.70
2019-04-11T19:39:30.593Z,63.20
2019-04-11T19:42:08.618Z,64.90
2019-04-11T19:44:35.223Z,65.30
2019-04-11T19:47:06.606Z,64.70
2019-04-11T19:49:37.716Z,63.40
2019-04-11T19:52:09.252Z,64.40
2019-04-11T19:54:40.033Z,63.60
2019-04-11T19:57:10.896Z,63.40
2019-04-11T19:59:42.187Z,63.60
2019-04-11T20:02:13.399Z,64.00
2019-04-11T20:04:46.530Z,64.40
2019-04-11T20:07:16.942Z,64.10
2019-04-11T20:09:47.630Z,64.90
2019-04-11T20:12:18.603Z,64.90
2019-04-11T20:14:50.119Z,65.90
2019-04-11T20:17:20.968Z,65.80
2019-04-11T20:20:00.884Z,64.80
2019-04-11T20:22:24.849Z,64.20
2019-04-11T20:24:55.512Z,64.10
2019-04-11T20:27:27.044Z,65.60
2019-04-11T20:29:58.574Z,67.50
2019-04-11T20:32:30.605Z,67.80
2019-04-11T20:35:02.405Z,67.30
2019-04-11T20:37:39.044Z,66.60
2019-04-11T20:40:07.322Z,66.40
2019-04-11T20:42:38.852Z,65.30
2019-04-11T20:45:09.932Z,64.50
2019-04-11T20:47:41.174Z,63.60
2019-04-11T20:50:12.283Z,63.60
2019-04-11T20:52:43.355Z,65.80
2019-04-11T20:55:14.637Z,67.20
2019-04-11T20:57:45.802Z,66.10
2019-04-11T21:00:17.064Z,65.90
2019-04-11T21:02:48.948Z,65.90
2019-04-11T21:05:19.853Z,66.00
2019-04-11T21:07:50.893Z,66.10
2019-04-11T21:10:21.917Z,65.90
2019-04-11T21:12:53.183Z,65.80
2019-04-11T21:15:24.332Z,66.00
2019-04-11T21:17:56.051Z,66.20
2019-04-11T21:20:28.097Z,66.20
2019-04-11T21:22:59.365Z,65.60
2019-04-11T21:25:30.825Z,65.80
2019-04-11T21:28:01.977Z,65.60
2019-04-11T21:30:33.039Z,65.70
2019-04-11T21:33:04.730Z,66.00
2019-04-11T21:35:36.193Z,66.20
2019-04-11T21:38:07.732Z,66.40
2019-04-11T21:40:38.884Z,66.60
2019-04-11T21:43:10.392Z,67.10
2019-04-11T21:45:41.701Z,67.10
2019-04-11T21:48:12.788Z,66.90
2019-04-11T21:50:44.053Z,67.10
2019-04-11T21:53:15.591Z,67.10
2019-04-11T21:55:47.697Z,67.30
2019-04-11T21:58:20.416Z,67.30
2019-04-11T22:00:54.417Z,67.20
2019-04-11T22:03:25.031Z,68.90
2019-04-11T22:05:59.850Z,68.10
2019-04-11T22:08:29.519Z,67.70
2019-04-11T22:11:02.963Z,67.50
2019-04-11T22:13:33.209Z,68.30
2019-04-11T22:16:04.738Z,67.80
2019-04-11T22:18:35.599Z,67.80
2019-04-11T22:21:06.761Z,67.30
2019-04-11T22:23:48.321Z,67.30
2019-04-11T22:26:11.067Z,67.10
2019-04-11T22:28:42.263Z,67.50
2019-04-11T22:31:13.222Z,67.80
2019-04-11T22:33:45.858Z,67.70
2019-04-11T22:36:16.509Z,67.40
2019-04-11T22:38:47.853Z,67.70
2019-04-11T22:41:19.168Z,69.30
2019-04-11T22:43:50.616Z,69.30
2019-04-11T22:46:21.845Z,68.90
2019-04-11T22:48:53.315Z,68.40
2019-04-11T22:51:24.569Z,68.60
2019-04-11T22:54:00.478Z,68.40
2019-04-11T22:56:28.341Z,68.40
2019-04-11T22:58:59.523Z,68.30
2019-04-11T23:01:30.260Z,68.40
2019-04-11T23:04:02.334Z,68.90
2019-04-11T23:06:33.173Z,68.70
2019-04-11T23:09:04.513Z,68.80
2019-04-11T23:11:35.736Z,68.50
2019-04-11T23:14:07.537Z,68.50
2019-04-11T23:16:38.698Z,70.20
2019-04-11T23:19:13.620Z,69.60
2019-04-11T23:21:42.762Z,69.00
2019-04-11T23:24:13.836Z,68.80
2019-04-11T23:26:45.456Z,68.80
2019-04-11T23:29:16.676Z,69.10
2019-04-11T23:31:50.616Z,69.00
2019-04-11T23:34:22.173Z,68.90
2019-04-11T23:36:52.983Z,69.10
2019-04-11T23:39:23.660Z,69.00
2019-04-11T23:41:55.011Z,69.10
2019-04-11T23:44:26.169Z,68.70
2019-04-11T23:46:57.123Z,68.80
2019-04-11T23:49:28.469Z,68.70
2019-04-11T23:51:59.817Z,68.20
2019-04-11T23:54:31.274Z,67.90
2019-04-11T23:57:02.888Z,66.80
2019-04-11T23:59:34.284Z,67.40
